Terminal Aerodrome Forecast
Issued by NWS Portland, OR

Home | Current Version | Previous Version | Text Only | Print | Product List | Glossary On
Versions: 1 2 3 4 5 6 7 8 9 10 11 12 13 14 15 16 17 18 19 20
000
FTUS46 KPQR 171739
TAFHIO
TAF
KHIO 171739Z 1718/1818 14004KT 3SM -RA BR BKN007 BKN040 OVC060
      TEMPO 1718/1720 BKN004 BKN040 OVC050
     FM172000 19011KT P6SM -RA BKN012 OVC035
     FM180100 24011KT P6SM -RA BKN025 OVC045
     FM180300 28010KT P6SM -SHRA SCT025 SCT060
     FM181200 VRB02KT 5SM BR BKN015=

USA.gov is the U.S. government's official web portal to all federal, state and local government web resources and services.